Terminal Aerodrome Forecast
Issued by NWS Melbourne, FL

Home | Current Version | Previous Version | Text Only | Print | Product List | Glossary On
Versions: 1 2 3 4 5 6 7 8 9 10 11 12 13 14 15 16 17
000
FTUS42 KMLB 242342
TAFVRB
TAF
KVRB 242342Z 2500/2524 22008KT P6SM -RA FEW022 BKN035 OVC110
     FM250300 22015G22KT P6SM SCT030 BKN250
     FM251400 26019G26KT P6SM SCT030 BKN050=

USA.gov is the U.S. government's official web portal to all federal, state and local government web resources and services.